Time;durP1;ratioP1;P1;durP2;ratioP2;P2;SDS_P1;SDS_P2;PMS_P1;PMS_P2;Temp;Humidity;BMP_temperature;BMP_pressure;BME280_temperature;BME280_humidity;BME280_pressure;Samples;Min_cycle;Max_cycle;Signal;HPM_P1;HPM_P2
2022/10/02 00:00:01;;;;;;;7.03;4.15;;;;;;;;;;5073798;28;20031;-40
2022/10/02 00:02:38;;;;;;;9.18;4.10;;;;;;;;;;5073566;28;20021;-39
2022/10/02 00:05:15;;;;;;;8.57;4.00;;;;;;;;;;5073776;28;20028;-43
2022/10/02 00:07:47;;;;;;;5.60;3.28;;;;;;;;;;5072150;28;20534;-40
2022/10/02 00:10:18;;;;;;;6.30;3.25;;;;;;;;;;5073537;28;20064;-41
2022/10/02 00:12:44;;;;;;;5.07;3.20;;;;;;;;;;5073389;28;20028;-40
2022/10/02 00:15:15;;;;;;;17.88;3.85;;;;;;;;;;5073341;28;20024;-41
2022/10/02 00:17:42;;;;;;;5.22;3.22;;;;;;;;;;5073624;28;20390;-46
2022/10/02 00:20:12;;;;;;;11.25;3.92;;;;;;;;;;5073460;28;20016;-40
2022/10/02 00:22:43;;;;;;;5.10;3.88;;;;;;;;;;5073474;28;20038;-40
2022/10/02 00:25:16;;;;;;;6.25;3.53;;;;;;;;;;5073094;28;20036;-40
2022/10/02 00:27:45;;;;;;;5.55;3.63;;;;;;;;;;5073286;28;20435;-40
2022/10/02 00:30:13;;;;;;;4.68;2.97;;;;;;;;;;5073041;28;20027;-40
2022/10/02 00:32:48;;;;;;;7.05;2.67;;;;;;;;;;5073127;28;20413;-40
2022/10/02 00:35:31;;;;;;;6.20;3.53;;;;;;;;;;5072762;28;20048;-40
2022/10/02 00:37:59;;;;;;;6.32;3.42;;;;;;;;;;5073222;28;20025;-41
2022/10/02 00:40:43;;;;;;;6.45;3.30;;;;;;;;;;5072908;28;20021;-40
2022/10/02 00:43:44;;;;;;;8.02;3.42;;;;;;;;;;5072787;28;20024;-40
2022/10/02 00:46:09;;;;;;;6.15;3.00;;;;;;;;;;4971676;28;20066;-40
2022/10/02 00:48:46;;;;;;;4.18;2.47;;;;;;;;;;5051360;28;20076;-41
2022/10/02 00:51:17;;;;;;;6.22;3.33;;;;;;;;;;5072566;28;20083;-40
2022/10/02 00:53:42;;;;;;;7.93;3.70;;;;;;;;;;5072719;28;20105;-40
2022/10/02 00:56:16;;;;;;;6.45;3.35;;;;;;;;;;5072715;28;20024;-40
2022/10/02 00:58:47;;;;;;;7.60;3.80;;;;;;;;;;5072158;28;20117;-40
2022/10/02 01:01:24;;;;;;;4.95;2.80;;;;;;;;;;5054466;28;20029;-41
2022/10/02 01:03:55;;;;;;;5.78;3.42;;;;;;;;;;5072369;28;20466;-40
2022/10/02 01:06:24;;;;;;;6.50;3.38;;;;;;;;;;5072422;28;20032;-40
2022/10/02 01:08:50;;;;;;;7.10;3.55;;;;;;;;;;5072162;28;20084;-40
2022/10/02 01:11:16;;;;;;;4.38;3.33;;;;;;;;;;5072285;28;20025;-40
2022/10/02 01:13:42;;;;;;;7.15;3.65;;;;;;;;;;5054362;28;20080;-40
2022/10/02 01:16:10;;;;;;;8.30;4.25;;;;;;;;;;5072118;28;20017;-40
2022/10/02 01:18:35;;;;;;;8.07;5.10;;;;;;;;;;5072290;28;20067;-40
2022/10/02 01:21:06;;;;;;;6.05;3.30;;;;;;;;;;5072290;28;20048;-39
2022/10/02 01:23:50;;;;;;;4.75;3.15;;;;;;;;;;5072084;28;20031;-40
2022/10/02 01:26:16;;;;;;;6.13;3.88;;;;;;;;;;5072048;28;20108;-40
2022/10/02 01:28:42;;;;;;;8.60;3.55;;;;;;;;;;5072187;28;20120;-40
2022/10/02 01:31:14;;;;;;;5.03;2.83;;;;;;;;;;5071873;28;20443;-40
2022/10/02 01:33:41;;;;;;;4.60;2.28;;;;;;;;;;5072234;28;20371;-40
2022/10/02 01:36:07;;;;;;;6.47;3.47;;;;;;;;;;5071603;28;20060;-40
2022/10/02 01:38:32;;;;;;;8.50;4.13;;;;;;;;;;5071733;28;20024;-41
2022/10/02 01:40:58;;;;;;;10.10;4.40;;;;;;;;;;5071888;28;20032;-40
2022/10/02 01:43:26;;;;;;;7.40;3.70;;;;;;;;;;5071699;28;20032;-40
2022/10/02 01:45:57;;;;;;;6.25;3.65;;;;;;;;;;5071611;28;20477;-41
2022/10/02 01:48:32;;;;;;;5.93;4.00;;;;;;;;;;5071968;28;20037;-40
2022/10/02 01:51:16;;;;;;;8.80;3.80;;;;;;;;;;5071832;28;20082;-40
2022/10/02 01:53:59;;;;;;;5.57;4.35;;;;;;;;;;5071853;28;20067;-40
2022/10/02 01:56:48;;;;;;;6.15;3.78;;;;;;;;;;5071624;28;20403;-40
2022/10/02 01:59:22;;;;;;;8.77;4.93;;;;;;;;;;5071204;28;20029;-40
2022/10/02 02:02:00;;;;;;;6.97;4.03;;;;;;;;;;5071709;28;20033;-40
2022/10/02 02:04:31;;;;;;;6.90;4.07;;;;;;;;;;5071779;28;20025;-40
2022/10/02 02:07:09;;;;;;;10.38;4.05;;;;;;;;;;5071574;28;20036;-40
2022/10/02 02:09:41;;;;;;;7.70;3.67;;;;;;;;;;5071566;28;20133;-40
2022/10/02 02:12:07;;;;;;;6.45;3.80;;;;;;;;;;5071536;28;20037;-40
2022/10/02 02:14:34;;;;;;;10.85;4.57;;;;;;;;;;5071370;28;20028;-40
2022/10/02 02:17:10;;;;;;;6.28;4.25;;;;;;;;;;5071305;28;20028;-40
2022/10/02 02:19:38;;;;;;;5.55;3.40;;;;;;;;;;5071364;28;20032;-40
2022/10/02 02:22:06;;;;;;;7.20;4.20;;;;;;;;;;5071184;28;20024;-41
2022/10/02 02:24:32;;;;;;;5.68;4.13;;;;;;;;;;5071340;28;20081;-40
2022/10/02 02:26:59;;;;;;;7.88;3.90;;;;;;;;;;5071108;28;20467;-40
2022/10/02 02:29:27;;;;;;;6.30;3.20;;;;;;;;;;5071054;28;20041;-41
2022/10/02 02:31:54;;;;;;;5.78;3.45;;;;;;;;;;5071030;28;20016;-40
2022/10/02 02:34:40;;;;;;;5.82;3.70;;;;;;;;;;5071262;28;20028;-40
2022/10/02 02:37:08;;;;;;;6.15;3.97;;;;;;;;;;5071333;28;20085;-40
2022/10/02 02:39:41;;;;;;;6.70;3.90;;;;;;;;;;5053179;28;20382;-40
2022/10/02 02:42:07;;;;;;;6.63;3.85;;;;;;;;;;5071042;28;20028;-40
2022/10/02 02:44:37;;;;;;;6.22;4.28;;;;;;;;;;5071109;28;20063;-40
2022/10/02 02:47:11;;;;;;;6.15;4.20;;;;;;;;;;5071335;28;20090;-40
2022/10/02 02:49:37;;;;;;;7.45;4.35;;;;;;;;;;5071169;28;20149;-40
2022/10/02 02:52:03;;;;;;;8.48;4.68;;;;;;;;;;5071188;28;20109;-40
2022/10/02 02:54:35;;;;;;;7.35;4.22;;;;;;;;;;5053157;28;20083;-40
2022/10/02 02:57:03;;;;;;;5.85;3.67;;;;;;;;;;5070771;28;20398;-40
2022/10/02 02:59:30;;;;;;;6.57;3.40;;;;;;;;;;5070983;28;20032;-40
2022/10/02 03:01:55;;;;;;;5.35;3.80;;;;;;;;;;5070733;28;20028;-40
2022/10/02 03:04:21;;;;;;;6.65;3.67;;;;;;;;;;5071080;28;20037;-39
2022/10/02 03:06:48;;;;;;;10.48;4.03;;;;;;;;;;5070973;28;20553;-40
2022/10/02 03:09:18;;;;;;;9.30;4.40;;;;;;;;;;5070941;28;20036;-40
2022/10/02 03:11:53;;;;;;;9.55;4.50;;;;;;;;;;5070646;28;20068;-40
2022/10/02 03:14:27;;;;;;;11.00;5.15;;;;;;;;;;5071145;28;20079;-40
2022/10/02 03:17:07;;;;;;;9.95;4.85;;;;;;;;;;5071025;28;20032;-40
2022/10/02 03:19:51;;;;;;;6.32;4.07;;;;;;;;;;5070741;28;20033;-41
2022/10/02 03:22:26;;;;;;;9.10;5.32;;;;;;;;;;5072488;28;20425;-40
2022/10/02 03:25:01;;;;;;;7.60;4.47;;;;;;;;;;5074467;28;20025;-40
2022/10/02 03:27:32;;;;;;;9.65;5.03;;;;;;;;;;5074222;28;20115;-40
2022/10/02 03:30:14;;;;;;;7.50;4.43;;;;;;;;;;5056597;28;20032;-40
2022/10/02 03:32:42;;;;;;;8.93;4.43;;;;;;;;;;5074455;28;20115;-40
2022/10/02 03:35:10;;;;;;;6.03;3.80;;;;;;;;;;5074105;28;20055;-40
2022/10/02 03:37:37;;;;;;;11.43;5.15;;;;;;;;;;5074158;28;20777;-40
2022/10/02 03:40:04;;;;;;;6.72;4.47;;;;;;;;;;5072813;28;20064;-40
2022/10/02 03:42:31;;;;;;;8.05;5.13;;;;;;;;;;5074280;28;20025;-40
2022/10/02 03:44:56;;;;;;;7.68;4.93;;;;;;;;;;5074202;28;20028;-40
2022/10/02 03:47:21;;;;;;;6.70;4.57;;;;;;;;;;5074089;28;20394;-40
2022/10/02 03:49:46;;;;;;;10.48;4.60;;;;;;;;;;5073996;28;20054;-40
2022/10/02 03:52:18;;;;;;;8.13;4.50;;;;;;;;;;5074005;28;20048;-40
2022/10/02 03:54:43;;;;;;;6.70;3.83;;;;;;;;;;5073764;28;20060;-40
2022/10/02 03:57:12;;;;;;;11.40;4.63;;;;;;;;;;5073696;28;20074;-40
2022/10/02 03:59:44;;;;;;;6.60;3.95;;;;;;;;;;5073997;28;20161;-39
2022/10/02 04:02:19;;;;;;;6.97;3.70;;;;;;;;;;5073813;28;20040;-40
2022/10/02 04:04:46;;;;;;;5.78;4.00;;;;;;;;;;5073619;28;20635;-40
2022/10/02 04:07:18;;;;;;;7.18;4.20;;;;;;;;;;5073769;28;20024;-40
2022/10/02 04:09:54;;;;;;;5.20;3.72;;;;;;;;;;5073818;28;20040;-39
2022/10/02 04:12:22;;;;;;;7.40;4.13;;;;;;;;;;5073762;28;20043;-40
2022/10/02 04:14:53;;;;;;;6.57;4.13;;;;;;;;;;5073451;28;20088;-41
2022/10/02 04:17:21;;;;;;;7.10;4.65;;;;;;;;;;5073398;28;20024;-40
2022/10/02 04:19:50;;;;;;;8.23;4.28;;;;;;;;;;5073369;28;20028;-40
2022/10/02 04:22:18;;;;;;;8.07;3.53;;;;;;;;;;5073080;28;20131;-40
2022/10/02 04:25:04;;;;;;;6.40;3.45;;;;;;;;;;5073212;28;20542;-40
2022/10/02 04:27:35;;;;;;;6.72;3.78;;;;;;;;;;5073399;28;20051;-40
2022/10/02 04:30:03;;;;;;;5.32;3.95;;;;;;;;;;5073052;28;20390;-40
2022/10/02 04:32:29;;;;;;;9.90;4.57;;;;;;;;;;5073298;28;20040;-40
2022/10/02 04:34:55;;;;;;;6.50;4.05;;;;;;;;;;5071933;28;20122;-40
2022/10/02 04:37:30;;;;;;;5.80;3.85;;;;;;;;;;5054987;28;20475;-40
2022/10/02 04:40:05;;;;;;;5.72;3.60;;;;;;;;;;5072921;28;20050;-41
2022/10/02 04:42:30;;;;;;;7.85;4.13;;;;;;;;;;5072905;28;20035;-40
2022/10/02 04:44:56;;;;;;;8.13;3.88;;;;;;;;;;5073025;28;20012;-40
2022/10/02 04:47:27;;;;;;;6.97;4.28;;;;;;;;;;5073009;28;20031;-40
2022/10/02 04:49:59;;;;;;;6.47;3.47;;;;;;;;;;5072825;28;20082;-40
2022/10/02 04:52:36;;;;;;;3.85;2.75;;;;;;;;;;5072659;28;20017;-40
2022/10/02 04:55:17;;;;;;;7.35;5.18;;;;;;;;;;5072889;28;20040;-42
2022/10/02 04:57:55;;;;;;;10.98;5.00;;;;;;;;;;5072897;28;20032;-40
2022/10/02 05:00:22;;;;;;;7.47;3.60;;;;;;;;;;5072521;28;20032;-40
2022/10/02 05:02:54;;;;;;;6.45;3.75;;;;;;;;;;5072808;28;20108;-41
2022/10/02 05:05:32;;;;;;;7.18;4.38;;;;;;;;;;5072426;28;20047;-40
2022/10/02 05:08:06;;;;;;;7.38;5.10;;;;;;;;;;5072290;28;20131;-40
2022/10/02 05:10:44;;;;;;;7.70;4.43;;;;;;;;;;5072324;28;20028;-40
2022/10/02 05:13:12;;;;;;;5.28;3.38;;;;;;;;;;5072226;28;20033;-39
2022/10/02 05:15:37;;;;;;;8.15;3.90;;;;;;;;;;5072315;28;20463;-40
2022/10/02 05:18:15;;;;;;;7.07;3.35;;;;;;;;;;5072374;28;20025;-40
2022/10/02 05:21:01;;;;;;;4.80;3.33;;;;;;;;;;5054226;28;20047;-40
2022/10/02 05:23:45;;;;;;;4.25;3.50;;;;;;;;;;5053785;28;20040;-39
2022/10/02 05:26:30;;;;;;;6.88;3.90;;;;;;;;;;5072007;28;20035;-39
2022/10/02 05:28:58;;;;;;;6.22;3.10;;;;;;;;;;5072073;28;20036;-40
2022/10/02 05:31:38;;;;;;;5.10;3.83;;;;;;;;;;5071870;28;20013;-40
2022/10/02 05:34:13;;;;;;;6.15;3.13;;;;;;;;;;5071732;28;20391;-40
2022/10/02 05:36:51;;;;;;;4.32;3.20;;;;;;;;;;5054002;28;20095;-40
2022/10/02 05:39:21;;;;;;;4.63;3.05;;;;;;;;;;5071981;28;20040;-40
2022/10/02 05:42:05;;;;;;;5.55;3.47;;;;;;;;;;5071750;28;20035;-39
2022/10/02 05:44:37;;;;;;;7.13;3.65;;;;;;;;;;5071578;28;20250;-40
2022/10/02 05:47:08;;;;;;;5.45;3.40;;;;;;;;;;5071871;28;20029;-40
2022/10/02 05:49:36;;;;;;;6.18;3.75;;;;;;;;;;5071579;28;20497;-39
2022/10/02 05:52:09;;;;;;;6.20;3.03;;;;;;;;;;5071589;28;20012;-39
2022/10/02 05:54:40;;;;;;;5.78;4.53;;;;;;;;;;5071629;28;20037;-40
2022/10/02 05:57:11;;;;;;;6.78;3.65;;;;;;;;;;5071538;28;20028;-40
2022/10/02 05:59:43;;;;;;;5.95;3.65;;;;;;;;;;5071567;28;20043;-40
2022/10/02 06:02:33;;;;;;;4.67;3.53;;;;;;;;;;5071732;28;20074;-40
2022/10/02 06:05:04;;;;;;;6.13;3.30;;;;;;;;;;5071472;28;20028;-40
2022/10/02 06:07:30;;;;;;;7.07;3.47;;;;;;;;;;5071416;28;20043;-40
2022/10/02 06:09:59;;;;;;;5.60;3.45;;;;;;;;;;5071281;28;20028;-40
2022/10/02 06:12:29;;;;;;;7.85;3.45;;;;;;;;;;5071462;28;20024;-39
2022/10/02 06:15:07;;;;;;;3.97;2.05;;;;;;;;;;5071280;28;20039;-39
2022/10/02 06:17:32;;;;;;;5.10;2.90;;;;;;;;;;5071232;28;20459;-40
2022/10/02 06:19:58;;;;;;;10.52;3.90;;;;;;;;;;5071530;28;20023;-39
2022/10/02 06:22:34;;;;;;;6.32;4.32;;;;;;;;;;5071609;28;20028;-39
2022/10/02 06:25:06;;;;;;;6.35;3.13;;;;;;;;;;5071284;28;20032;-40
2022/10/02 06:27:43;;;;;;;3.70;2.97;;;;;;;;;;5071288;28;20040;-40
2022/10/02 06:30:11;;;;;;;8.50;3.65;;;;;;;;;;5071010;28;20119;-40
2022/10/02 06:32:47;;;;;;;5.28;3.50;;;;;;;;;;5071298;28;20089;-40
2022/10/02 06:35:14;;;;;;;5.47;3.22;;;;;;;;;;5070878;28;20057;-40
2022/10/02 06:38:03;;;;;;;4.50;2.50;;;;;;;;;;5069970;28;20032;-40
2022/10/02 06:40:29;;;;;;;4.00;2.80;;;;;;;;;;5024157;28;20510;-40
2022/10/02 06:43:25;;;;;;;5.38;3.42;;;;;;;;;;5053161;28;20017;-40
2022/10/02 06:45:59;;;;;;;6.93;3.50;;;;;;;;;;4982311;28;20043;-40
2022/10/02 06:48:25;;;;;;;5.05;3.20;;;;;;;;;;5071092;28;20467;-40
2022/10/02 06:51:05;;;;;;;6.45;3.22;;;;;;;;;;5053182;28;20021;-39
2022/10/02 06:53:37;;;;;;;4.78;2.95;;;;;;;;;;5071042;28;20059;-41
2022/10/02 06:56:21;;;;;;;14.50;4.85;;;;;;;;;;5070939;28;20028;-40
2022/10/02 06:59:06;;;;;;;4.97;3.55;;;;;;;;;;5074858;28;20158;-40
2022/10/02 07:01:45;;;;;;;3.95;2.95;;;;;;;;;;5074809;28;20506;-40
2022/10/02 07:04:16;;;;;;;5.78;4.05;;;;;;;;;;5056814;28;20061;-39
2022/10/02 07:06:44;;;;;;;5.35;3.30;;;;;;;;;;5074724;28;20025;-40
2022/10/02 07:09:10;;;;;;;6.53;2.90;;;;;;;;;;5074867;28;20044;-40
2022/10/02 07:11:38;;;;;;;7.15;5.03;;;;;;;;;;5074903;28;20538;-40
2022/10/02 07:14:06;;;;;;;5.90;3.45;;;;;;;;;;5074509;28;20395;-40
2022/10/02 07:16:50;;;;;;;5.22;3.30;;;;;;;;;;5074605;28;20024;-40
2022/10/02 07:19:16;;;;;;;4.35;3.10;;;;;;;;;;5073147;28;20111;-39
2022/10/02 07:21:47;;;;;;;4.47;2.53;;;;;;;;;;5074408;28;20534;-40
2022/10/02 07:24:19;;;;;;;5.40;2.75;;;;;;;;;;5074371;28;20021;-40
2022/10/02 07:26:46;;;;;;;5.78;3.10;;;;;;;;;;5074556;28;20028;-39
2022/10/02 07:29:19;;;;;;;4.70;3.10;;;;;;;;;;5074189;28;20367;-40
2022/10/02 07:32:03;;;;;;;3.55;2.55;;;;;;;;;;5074274;28;20035;-40
2022/10/02 07:34:28;;;;;;;4.90;2.75;;;;;;;;;;5074190;28;20479;-39
2022/10/02 07:37:21;;;;;;;4.55;2.63;;;;;;;;;;5073975;28;20127;-40
2022/10/02 07:40:02;;;;;;;4.20;1.77;;;;;;;;;;5074054;28;20103;-42
2022/10/02 07:42:28;;;;;;;7.82;3.47;;;;;;;;;;5074004;28;20262;-40
2022/10/02 07:44:54;;;;;;;3.88;2.50;;;;;;;;;;5056229;28;20020;-40
2022/10/02 07:47:35;;;;;;;3.53;2.40;;;;;;;;;;5073950;28;20029;-40
2022/10/02 07:50:21;;;;;;;4.65;2.20;;;;;;;;;;5073742;28;20585;-39
2022/10/02 07:52:55;;;;;;;2.70;2.13;;;;;;;;;;5074013;28;20029;-40
2022/10/02 07:55:22;;;;;;;3.75;2.33;;;;;;;;;;5073802;28;20089;-39
2022/10/02 07:57:53;;;;;;;3.47;2.30;;;;;;;;;;5055923;28;20019;-40
2022/10/02 08:00:22;;;;;;;4.00;2.17;;;;;;;;;;5073685;28;20462;-39
2022/10/02 08:03:01;;;;;;;3.05;2.58;;;;;;;;;;5073664;28;20020;-40
2022/10/02 08:05:50;;;;;;;5.13;2.10;;;;;;;;;;5073680;28;20153;-40
2022/10/02 08:08:23;;;;;;;3.55;2.53;;;;;;;;;;5058822;28;20076;-41
2022/10/02 08:11:08;;;;;;;4.05;2.70;;;;;;;;;;5073777;28;20029;-40
2022/10/02 08:13:55;;;;;;;3.25;1.80;;;;;;;;;;5073500;28;20505;-40
2022/10/02 08:16:31;;;;;;;3.67;2.15;;;;;;;;;;5073398;28;20036;-40
2022/10/02 08:19:00;;;;;;;3.15;2.30;;;;;;;;;;5073350;28;20544;-40
2022/10/02 08:21:29;;;;;;;3.55;2.60;;;;;;;;;;5073259;28;20032;-39
2022/10/02 08:24:05;;;;;;;3.38;2.15;;;;;;;;;;5071921;28;20033;-40
2022/10/02 08:26:31;;;;;;;4.47;3.13;;;;;;;;;;5073148;28;20070;-40
2022/10/02 08:29:04;;;;;;;5.03;2.65;;;;;;;;;;5073081;28;20032;-40
2022/10/02 08:31:33;;;;;;;4.30;2.88;;;;;;;;;;5073043;28;20033;-39
2022/10/02 08:34:05;;;;;;;4.60;2.17;;;;;;;;;;5073261;28;20028;-39
2022/10/02 08:36:46;;;;;;;4.63;2.60;;;;;;;;;;5072815;28;20048;-40
2022/10/02 08:39:12;;;;;;;3.90;1.75;;;;;;;;;;5072892;28;20039;-40
2022/10/02 08:41:37;;;;;;;2.75;2.10;;;;;;;;;;5072929;28;20013;-40
2022/10/02 08:44:08;;;;;;;4.65;2.28;;;;;;;;;;5072794;28;20047;-40
2022/10/02 08:46:57;;;;;;;4.30;2.72;;;;;;;;;;5072800;28;20040;-40
2022/10/02 08:49:34;;;;;;;4.07;2.40;;;;;;;;;;5073085;28;20037;-40
2022/10/02 08:52:03;;;;;;;3.67;2.13;;;;;;;;;;5072693;28;20107;-40
2022/10/02 08:54:43;;;;;;;2.90;1.98;;;;;;;;;;5073014;28;20063;-40
2022/10/02 08:57:12;;;;;;;3.10;2.13;;;;;;;;;;5072872;28;20040;-40
2022/10/02 08:59:56;;;;;;;4.57;1.98;;;;;;;;;;5072515;28;20082;-40
2022/10/02 09:02:40;;;;;;;2.92;1.88;;;;;;;;;;5072749;28;20093;-40
2022/10/02 09:05:12;;;;;;;3.25;2.22;;;;;;;;;;5072730;28;20055;-41
2022/10/02 09:07:53;;;;;;;2.08;1.67;;;;;;;;;;5072331;28;20643;-40
2022/10/02 09:10:25;;;;;;;5.32;2.38;;;;;;;;;;5072535;28;20435;-46
2022/10/02 09:12:57;;;;;;;2.50;1.53;;;;;;;;;;5072402;28;20038;-39
2022/10/02 09:15:34;;;;;;;3.17;2.40;;;;;;;;;;5072287;28;20062;-40
2022/10/02 09:18:18;;;;;;;4.05;2.70;;;;;;;;;;5072204;28;20043;-40
2022/10/02 09:20:57;;;;;;;5.63;3.63;;;;;;;;;;5071866;28;20505;-40
2022/10/02 09:23:35;;;;;;;2.90;2.22;;;;;;;;;;5072168;28;20029;-40
2022/10/02 09:26:16;;;;;;;3.08;2.05;;;;;;;;;;5072073;28;20044;-41
2022/10/02 09:28:44;;;;;;;4.15;1.73;;;;;;;;;;5072124;28;20044;-40
2022/10/02 09:31:28;;;;;;;3.13;2.20;;;;;;;;;;5071913;28;20009;-40
2022/10/02 09:33:54;;;;;;;3.22;1.80;;;;;;;;;;5072007;28;20027;-40
2022/10/02 09:36:34;;;;;;;2.90;1.77;;;;;;;;;;5071686;28;20048;-40
2022/10/02 09:39:20;;;;;;;2.38;1.50;;;;;;;;;;5071756;28;20033;-40
2022/10/02 09:42:05;;;;;;;4.05;2.08;;;;;;;;;;5020882;28;20043;-40
2022/10/02 09:44:36;;;;;;;3.00;1.85;;;;;;;;;;5071739;28;20032;-40
2022/10/02 09:47:25;;;;;;;2.33;1.33;;;;;;;;;;5071683;28;20093;-40
2022/10/02 09:50:09;;;;;;;2.10;1.55;;;;;;;;;;5024597;28;20101;-40
2022/10/02 09:52:46;;;;;;;2.38;2.05;;;;;;;;;;5071925;28;20108;-40
2022/10/02 09:55:20;;;;;;;3.13;2.33;;;;;;;;;;5071834;28;20041;-40
2022/10/02 09:58:01;;;;;;;3.85;2.30;;;;;;;;;;5071600;28;20047;-41
2022/10/02 10:00:50;;;;;;;2.97;2.15;;;;;;;;;;5071703;28;20029;-40
2022/10/02 10:03:21;;;;;;;2.55;1.80;;;;;;;;;;5071398;28;20040;-40
2022/10/02 10:05:53;;;;;;;2.60;1.70;;;;;;;;;;5071458;28;20031;-40
2022/10/02 10:08:19;;;;;;;3.80;2.80;;;;;;;;;;5071329;28;20090;-41
2022/10/02 10:11:04;;;;;;;2.13;1.60;;;;;;;;;;5071456;28;20445;-40
2022/10/02 10:13:48;;;;;;;3.92;1.73;;;;;;;;;;5071723;28;20033;-40
2022/10/02 10:16:32;;;;;;;4.90;1.52;;;;;;;;;;5071370;28;20059;-40
2022/10/02 10:19:03;;;;;;;2.00;1.52;;;;;;;;;;5053310;28;20021;-40
2022/10/02 10:21:38;;;;;;;2.22;1.63;;;;;;;;;;5071367;28;20040;-40
2022/10/02 10:24:26;;;;;;;3.10;2.03;;;;;;;;;;5071201;28;20432;-40
2022/10/02 10:27:07;;;;;;;2.38;1.52;;;;;;;;;;5071222;28;20090;-40
2022/10/02 10:29:37;;;;;;;2.00;1.60;;;;;;;;;;5071166;28;20045;-40
2022/10/02 10:32:11;;;;;;;1.38;1.15;;;;;;;;;;5072492;28;20021;-40
2022/10/02 10:34:44;;;;;;;1.92;1.52;;;;;;;;;;5075730;28;20419;-40
2022/10/02 10:40:24;;;;;;;2.35;1.67;;;;;;;;;;5075477;28;20091;-40
2022/10/02 10:42:49;;;;;;;2.42;1.52;;;;;;;;;;5075435;28;20025;-40
2022/10/02 10:45:33;;;;;;;2.10;1.60;;;;;;;;;;5075059;28;20043;-40
2022/10/02 10:47:59;;;;;;;2.80;1.80;;;;;;;;;;5075249;28;20130;-40
2022/10/02 10:50:33;;;;;;;2.20;1.60;;;;;;;;;;5075075;28;20063;-40
2022/10/02 10:53:18;;;;;;;3.53;1.80;;;;;;;;;;5074998;28;20035;-40
2022/10/02 10:56:01;;;;;;;3.38;1.70;;;;;;;;;;5074919;28;20075;-40
2022/10/02 10:58:43;;;;;;;2.13;1.60;;;;;;;;;;5075158;28;20028;-41
2022/10/02 11:01:16;;;;;;;3.20;2.30;;;;;;;;;;5056783;28;20063;-40
2022/10/02 11:04:00;;;;;;;3.55;2.53;;;;;;;;;;5074925;28;20078;-40
2022/10/02 11:06:49;;;;;;;3.58;1.50;;;;;;;;;;5074720;28;20132;-40
2022/10/02 11:09:26;;;;;;;2.80;1.63;;;;;;;;;;5074758;28;20037;-40
2022/10/02 11:11:59;;;;;;;1.48;1.02;;;;;;;;;;5056777;28;20174;-40
2022/10/02 11:14:25;;;;;;;3.30;1.30;;;;;;;;;;5074650;28;20029;-45
2022/10/02 11:16:53;;;;;;;2.85;2.03;;;;;;;;;;5074549;28;20085;-40
2022/10/02 11:19:25;;;;;;;4.25;1.88;;;;;;;;;;5074412;28;20146;-40
2022/10/02 11:22:16;;;;;;;2.15;1.38;;;;;;;;;;5056637;28;20100;-43
2022/10/02 11:24:54;;;;;;;1.13;1.02;;;;;;;;;;5074387;28;20079;-41
2022/10/02 11:27:32;;;;;;;1.58;1.27;;;;;;;;;;5074532;28;20024;-40
2022/10/02 11:30:04;;;;;;;3.05;2.05;;;;;;;;;;5074072;28;20036;-40
2022/10/02 11:32:30;;;;;;;4.88;1.77;;;;;;;;;;5074554;28;20387;-40
2022/10/02 11:35:23;;;;;;;1.70;1.38;;;;;;;;;;5074211;28;20478;-40
2022/10/02 11:38:08;;;;;;;1.65;1.33;;;;;;;;;;5036287;28;20071;-41
2022/10/02 11:40:36;;;;;;;1.65;1.50;;;;;;;;;;5074234;28;20043;-40
2022/10/02 11:43:21;;;;;;;2.53;1.45;;;;;;;;;;5055559;28;20020;-40
2022/10/02 11:45:54;;;;;;;3.25;1.50;;;;;;;;;;5074332;28;20025;-40
2022/10/02 11:48:19;;;;;;;;;;;;;;;;;;5074624;28;20040;-40
2022/10/02 11:51:08;;;;;;;3.03;1.52;;;;;;;;;;5073801;28;19905;-40
2022/10/02 11:53:50;;;;;;;2.60;1.52;;;;;;;;;;5073852;28;20048;-40
2022/10/02 11:56:35;;;;;;;1.75;1.38;;;;;;;;;;5073706;28;20036;-40
2022/10/02 11:59:17;;;;;;;1.98;1.63;;;;;;;;;;5073780;28;20036;-40
2022/10/02 12:01:55;;;;;;;3.03;2.05;;;;;;;;;;5073775;28;20033;-41
2022/10/02 12:04:35;;;;;;;2.72;1.45;;;;;;;;;;5055837;28;20485;-40
2022/10/02 12:07:09;;;;;;;4.85;1.77;;;;;;;;;;5073648;28;20028;-40
2022/10/02 12:09:53;;;;;;;2.10;1.25;;;;;;;;;;5073810;28;20394;-40
2022/10/02 12:12:35;;;;;;;1.45;1.35;;;;;;;;;;5073465;28;20039;-41
2022/10/02 12:15:09;;;;;;;1.88;1.58;;;;;;;;;;5073493;28;20089;-40
2022/10/02 12:17:54;;;;;;;2.00;1.35;;;;;;;;;;5073810;28;20024;-40
2022/10/02 12:29:18;;;;;;;1.20;1.02;;;;;;;;;;5055255;28;20043;-41
2022/10/02 12:32:07;;;;;;;1.85;1.45;;;;;;;;;;5061147;28;20475;-40
2022/10/02 12:34:33;;;;;;;4.32;1.60;;;;;;;;;;5073117;28;20119;-40
2022/10/02 12:37:05;;;;;;;2.03;1.83;;;;;;;;;;5072930;28;20119;-40
2022/10/02 12:39:42;;;;;;;1.43;1.17;;;;;;;;;;5073322;28;20033;-40
2022/10/02 12:42:34;;;;;;;2.03;1.13;;;;;;;;;;5073080;28;20028;-40
2022/10/02 12:45:05;;;;;;;1.40;1.23;;;;;;;;;;5067935;28;20475;-44
2022/10/02 12:47:42;;;;;;;0.95;0.82;;;;;;;;;;5072850;28;20028;-40
2022/10/02 12:50:08;;;;;;;1.58;1.20;;;;;;;;;;5072681;28;20077;-40
2022/10/02 12:52:46;;;;;;;1.77;1.45;;;;;;;;;;5072864;28;20103;-40
2022/10/02 12:55:47;;;;;;;3.60;0.85;;;;;;;;;;5070439;28;20043;-40
2022/10/02 12:58:22;;;;;;;1.15;1.05;;;;;;;;;;4971550;28;20038;-41
2022/10/02 13:00:50;;;;;;;1.23;1.13;;;;;;;;;;5058002;28;20399;-40
2022/10/02 13:03:35;;;;;;;1.20;1.10;;;;;;;;;;5072352;28;20020;-40
2022/10/02 13:06:19;;;;;;;2.05;1.33;;;;;;;;;;5072394;28;20040;-40
2022/10/02 13:09:01;;;;;;;1.50;1.00;;;;;;;;;;5072304;28;20482;-41
2022/10/02 13:11:42;;;;;;;3.10;1.20;;;;;;;;;;5072340;28;20024;-40
2022/10/02 13:14:26;;;;;;;1.92;1.63;;;;;;;;;;5072578;28;20028;-40
2022/10/02 13:17:06;;;;;;;2.53;0.98;;;;;;;;;;5072287;28;20495;-40
2022/10/02 13:19:41;;;;;;;0.98;0.88;;;;;;;;;;5072142;28;20036;-41
2022/10/02 13:22:13;;;;;;;3.33;0.95;;;;;;;;;;5072081;28;20117;-40
2022/10/02 13:24:39;;;;;;;1.07;0.97;;;;;;;;;;5072070;28;20146;-40
2022/10/02 13:27:05;;;;;;;2.28;1.35;;;;;;;;;;5072015;28;20281;-40
2022/10/02 13:29:54;;;;;;;1.35;1.10;;;;;;;;;;5072197;28;20036;-40
2022/10/02 13:32:25;;;;;;;1.98;1.35;;;;;;;;;;5058564;28;20029;-40
2022/10/02 13:34:54;;;;;;;1.88;1.42;;;;;;;;;;5071766;28;20033;-40
2022/10/02 13:37:28;;;;;;;1.40;1.23;;;;;;;;;;5072022;28;20068;-40
2022/10/02 13:40:03;;;;;;;1.00;0.57;;;;;;;;;;5070530;28;20463;-40
2022/10/02 13:42:47;;;;;;;2.97;2.47;;;;;;;;;;5071838;28;20036;-40
2022/10/02 13:45:46;;;;;;;1.50;1.40;;;;;;;;;;5071916;28;20079;-40
2022/10/02 13:48:44;;;;;;;3.08;2.05;;;;;;;;;;5017654;28;20464;-41
2022/10/02 13:51:09;;;;;;;3.65;2.10;;;;;;;;;;5016582;28;20048;-40
2022/10/02 13:53:44;;;;;;;5.55;2.50;;;;;;;;;;5053813;28;20374;-40
2022/10/02 13:56:21;;;;;;;2.95;2.10;;;;;;;;;;5071837;28;20029;-42
2022/10/02 13:58:56;;;;;;;2.75;1.35;;;;;;;;;;5071247;28;20511;-41
2022/10/02 14:01:24;;;;;;;3.00;1.90;;;;;;;;;;5071428;28;20044;-40
2022/10/02 14:03:49;;;;;;;2.10;1.90;;;;;;;;;;5053910;28;20378;-40
2022/10/02 14:06:37;;;;;;;2.67;2.20;;;;;;;;;;5071316;28;20028;-40
2022/10/02 14:09:29;;;;;;;1.67;0.88;;;;;;;;;;5071427;28;20555;-40
2022/10/02 14:12:13;;;;;;;2.05;1.67;;;;;;;;;;5067153;28;20036;-41
2022/10/02 14:14:45;;;;;;;2.92;2.25;;;;;;;;;;5071383;28;20044;-40
2022/10/02 14:17:12;;;;;;;2.22;1.90;;;;;;;;;;5070079;28;20494;-40
2022/10/02 14:19:37;;;;;;;3.70;2.20;;;;;;;;;;5071252;28;20052;-43
2022/10/02 14:22:23;;;;;;;5.78;2.78;;;;;;;;;;5071524;28;20086;-41
2022/10/02 14:25:12;;;;;;;3.40;2.42;;;;;;;;;;5071292;28;20064;-40
2022/10/02 14:28:01;;;;;;;4.03;2.05;;;;;;;;;;5057849;28;20491;-40
2022/10/02 14:30:30;;;;;;;2.38;1.88;;;;;;;;;;5071289;28;20036;-40
2022/10/02 14:32:58;;;;;;;1.85;1.65;;;;;;;;;;5071393;28;20138;-40
2022/10/02 14:35:30;;;;;;;3.00;2.35;;;;;;;;;;5070954;28;20094;-40
2022/10/02 14:38:08;;;;;;;2.57;1.97;;;;;;;;;;5071260;28;20036;-39
2022/10/02 14:40:56;;;;;;;5.28;3.55;;;;;;;;;;5071064;28;20744;-40
2022/10/02 14:43:31;;;;;;;4.80;2.50;;;;;;;;;;5053193;28;20039;-40
2022/10/02 14:46:06;;;;;;;3.85;2.67;;;;;;;;;;5071408;28;20025;-41
2022/10/02 14:48:41;;;;;;;2.20;1.95;;;;;;;;;;5070877;28;20490;-40
2022/10/02 14:51:35;;;;;;;4.80;2.60;;;;;;;;;;5070968;28;20483;-40
2022/10/02 14:54:04;;;;;;;2.67;1.98;;;;;;;;;;5071115;28;20028;-40
2022/10/02 14:56:29;;;;;;;4.75;3.55;;;;;;;;;;5070953;28;20483;-41
2022/10/02 14:59:01;;;;;;;2.40;2.20;;;;;;;;;;5071253;28;20039;-40
2022/10/02 15:01:28;;;;;;;4.15;2.65;;;;;;;;;;5071001;28;20059;-40
2022/10/02 15:04:03;;;;;;;1.75;1.15;;;;;;;;;;5070935;28;20383;-40
2022/10/02 15:06:40;;;;;;;3.70;3.13;;;;;;;;;;5071234;28;20091;-40
2022/10/02 15:09:22;;;;;;;7.93;3.88;;;;;;;;;;5070692;28;20559;-40
2022/10/02 15:11:58;;;;;;;5.88;2.40;;;;;;;;;;5070846;28;20489;-40
2022/10/02 15:14:33;;;;;;;10.45;4.05;;;;;;;;;;5070801;28;20560;-40
2022/10/02 15:20:04;;;;;;;8.05;4.18;;;;;;;;;;5074608;28;20082;-40
2022/10/02 15:22:38;;;;;;;6.47;3.60;;;;;;;;;;5056956;28;20033;-40
2022/10/02 15:25:27;;;;;;;7.55;2.78;;;;;;;;;;5074316;28;20111;-40
2022/10/02 15:27:59;;;;;;;6.95;3.58;;;;;;;;;;5027619;28;20368;-40
2022/10/02 15:30:25;;;;;;;4.63;3.75;;;;;;;;;;5074424;28;20536;-41
2022/10/02 15:33:06;;;;;;;5.57;3.83;;;;;;;;;;5074553;28;20077;-40
2022/10/02 15:35:44;;;;;;;9.18;3.63;;;;;;;;;;5074126;28;20056;-40
2022/10/02 15:38:28;;;;;;;6.32;3.85;;;;;;;;;;5074073;28;20085;-40
2022/10/02 15:41:15;;;;;;;5.00;3.83;;;;;;;;;;5074401;28;20025;-40